ADDS METAR Data INFO
IDs: Format: Raw Decoded Include TAF

Data at: 1351 UTC 17 Dec 2017

KRDD 171253Z AUTO 34007KT 10SM CLR 11/M08 A3013 RMK AO2 SLP202 T01061083
KRDD 171153Z AUTO 35008KT 10SM CLR 11/M08 A3014 RMK AO2 SLP204 T01061083 10122 20106 50002
KRDD 171053Z AUTO 35011KT 10SM CLR 11/M08 A3014 RMK AO2 SLP204 T01111083
KRDD 170953Z AUTO 34012KT 10SM CLR 11/M08 A3014 RMK AO2 PK WND 36030/0900 SLP205 T01111083
KRDD 170853Z AUTO 01021G27KT 10SM CLR 11/M08 A3013 RMK AO2 PK WND 36027/0851 SLP202 T01111083 50008
KRDD 170753Z AUTO 02012G19KT 10SM CLR 11/M08 A3016 RMK AO2 PK WND 36033/0702 SLP210 T01111083 401610100
KRDD 170653Z AUTO 36017G34KT 10SM CLR 12/M09 A3013 RMK AO2 PK WND 36034/0650 SLP200 T01171089
KRDD 170553Z AUTO 35016G27KT 10SM CLR 12/M09 A3011 RMK AO2 PK WND 36035/0506 SLP193 T01221089 10144 20117 53003
KRDD 170453Z 36017G32KT 10SM CLR 13/M10 A3009 RMK AO2 PK WND 01032/0445 SLP187 T01281100
KRDD 170353Z 36015KT 10SM CLR 12/M11 A3009 RMK AO2 SLP190 T01221106
KRDD 170253Z 35010KT 10SM CLR 13/M11 A3010 RMK AO2 SLP190 T01281106 51008
KRDD 170153Z 36011KT 10SM CLR 13/M09 A3009 RMK AO2 SLP188 T01281094
KRDD 170053Z 03011KT 10SM CLR 13/M08 A3009 RMK AO2 SLP187 T01281083
KRDD 162353Z 04016G21KT 10SM CLR 14/M09 A3007 RMK AO2 SLP181 T01441094 10161 20122 55007
KRDD 162253Z 04016KT 10SM CLR 16/M09 A3007 RMK AO2 PK WND 04026/2243 SLP180 T01561094
KRDD 162153Z 04014G22KT 10SM CLR 16/M08 A3008 RMK AO2 SLP184 T01561083
KRDD 162053Z 36010G19KT 10SM CLR 16/M08 A3009 RMK AO2 SLP189 T01561078 58017
KRDD 161953Z 36021G28KT 10SM CLR 14/M08 A3011 RMK AO2 PK WND 01028/1952 SLP194 T01441078
KRDD 161853Z 01015G29KT 10SM CLR 14/M06 A3014 RMK AO2 PK WND 01029/1849 SLP203 T01391061
KRDD 161753Z 34013G21KT 10SM CLR 12/M05 A3014 RMK AO2 SLP206 T01221050 10122 20100 51003
KRDD 161653Z 35011G23KT 10SM CLR 11/M04 A3014 RMK AO2 SLP204 T01111044
KRDD 161553Z 35011G19KT 10SM CLR 10/M04 A3016 RMK AO2 SLP211 T01001044
KRDD 161453Z 34013G19KT 10SM CLR 10/M05 A3013 RMK AO2 SLP203 T01001050 55003
KRDD 161353Z AUTO 35014G20KT 10SM CLR 10/M04 A3012 RMK AO2 SLP200 T01001044
KRDD 161253Z AUTO 35012G20KT 10SM CLR 11/M04 A3013 RMK AO2 SLP200 T01061044
KRDD 161153Z AUTO 36010KT 10SM CLR 11/M04 A3014 RMK AO2 SLP206 T01061044 10150 20100 51017
KRDD 161053Z AUTO 35013KT 10SM CLR 11/M04 A3014 RMK AO2 SLP205 T01111044
KRDD 160953Z AUTO 34008KT 10SM CLR 12/M03 A3011 RMK AO2 SLP194 T01171028
KRDD 160853Z AUTO 36007KT 10SM CLR 12/M02 A3009 RMK AO2 SLP189 T01221017 51008
KRDD 160753Z AUTO 35007KT 10SM CLR 13/M01 A3008 RMK AO2 SLP185 T01281006 401500017
KRDD 160653Z AUTO 36011KT 10SM CLR 14/01 A3008 RMK AO2 SLP184 T01390011
KRDD 160553Z AUTO 33009KT 10SM CLR 13/03 A3007 RMK AO2 SLP181 T01330028 10144 20083 53003
KRDD 160453Z 33005KT 10SM CLR 09/06 A3005 RMK AO2 SLP175 T00890056
KRDD 160353Z 31005KT 9SM CLR 11/06 A3005 RMK AO2 SLP176 T01060061
KRDD 160253Z 32005KT 10SM OVC090 11/07 A3006 RMK AO2 SLP179 T01060072 50001
KRDD 160153Z 00000KT 10SM BKN110 11/07 A3006 RMK AO2 SLP180 T01060067